createdAt,value
2022-09-04T00:01:21.987Z,5.90
2022-09-04T00:03:57.560Z,1.63
2022-09-04T00:06:30.606Z,8.73
2022-09-04T00:09:12.917Z,2.50
2022-09-04T00:11:48.308Z,5.30
2022-09-04T00:14:19.882Z,3.87
2022-09-04T00:16:52.322Z,3.20
2022-09-04T00:19:27.720Z,5.40
2022-09-04T00:21:58.734Z,1.70
2022-09-04T00:24:28.439Z,4.15
2022-09-04T00:26:59.731Z,3.25
2022-09-04T00:29:37.300Z,3.40
2022-09-04T00:32:12.224Z,1.70
2022-09-04T00:34:49.826Z,4.65
2022-09-04T00:37:22.556Z,3.95
2022-09-04T00:39:58.850Z,4.45
2022-09-04T00:42:38.470Z,4.38
2022-09-04T00:45:18.431Z,4.95
2022-09-04T00:48:07.483Z,2.50
2022-09-04T00:50:43.753Z,2.65
2022-09-04T00:53:26.227Z,4.78
2022-09-04T00:56:10.970Z,4.25
2022-09-04T00:58:57.790Z,3.95
2022-09-04T01:01:28.322Z,2.35
2022-09-04T01:04:11.319Z,4.50
2022-09-04T01:06:43.654Z,3.55
2022-09-04T01:09:33.441Z,5.22
2022-09-04T01:12:08.563Z,3.30
2022-09-04T01:14:41.431Z,2.40
2022-09-04T01:17:15.934Z,5.03
2022-09-04T01:19:51.866Z,4.50
2022-09-04T01:22:46.881Z,3.22
2022-09-04T01:25:28.043Z,4.30
2022-09-04T01:28:00.843Z,2.30
2022-09-04T01:30:32.830Z,4.05
2022-09-04T01:33:05.620Z,5.25
2022-09-04T01:35:36.311Z,3.78
2022-09-04T01:38:10.803Z,6.03
2022-09-04T01:40:43.246Z,5.38
2022-09-04T01:43:13.645Z,3.50
2022-09-04T01:45:50.276Z,3.95
2022-09-04T01:48:19.087Z,4.97
2022-09-04T01:50:50.501Z,3.83
2022-09-04T01:53:22.042Z,3.65
2022-09-04T01:55:52.819Z,7.45
2022-09-04T01:58:30.224Z,3.45
2022-09-04T02:01:02.282Z,4.32
2022-09-04T02:03:39.578Z,4.13
2022-09-04T02:06:17.857Z,6.03
2022-09-04T02:09:04.291Z,3.63
2022-09-04T02:11:33.066Z,3.70
2022-09-04T02:14:14.334Z,5.50
2022-09-04T02:16:59.155Z,6.43
2022-09-04T02:19:36.960Z,3.42
2022-09-04T02:22:12.305Z,4.18
2022-09-04T02:24:46.906Z,4.15
2022-09-04T02:27:20.650Z,4.28
2022-09-04T02:29:58.410Z,3.60
2022-09-04T02:32:32.904Z,3.20
2022-09-04T02:35:05.162Z,3.55
2022-09-04T02:37:36.561Z,4.55
2022-09-04T02:40:11.925Z,4.28
2022-09-04T02:42:46.811Z,4.22
2022-09-04T02:45:20.980Z,5.00
2022-09-04T02:47:53.486Z,4.32
2022-09-04T02:50:33.728Z,2.60
2022-09-04T02:53:13.913Z,3.13
2022-09-04T02:55:58.556Z,3.55
2022-09-04T02:58:33.781Z,5.13
2022-09-04T03:01:12.393Z,3.30
2022-09-04T03:03:44.091Z,5.10
2022-09-04T03:06:14.513Z,4.40
2022-09-04T03:08:46.957Z,6.20
2022-09-04T03:11:18.772Z,3.97
2022-09-04T03:13:51.645Z,6.60
2022-09-04T03:16:26.024Z,5.20
2022-09-04T03:19:08.446Z,3.28
2022-09-04T03:21:42.044Z,3.88
2022-09-04T03:24:14.155Z,3.20
2022-09-04T03:26:43.524Z,8.05
2022-09-04T03:29:22.038Z,3.28
2022-09-04T03:31:59.903Z,5.27
2022-09-04T03:34:37.526Z,6.53
2022-09-04T03:37:29.681Z,4.38
2022-09-04T03:40:14.211Z,2.75
2022-09-04T03:42:54.096Z,5.20
2022-09-04T03:45:27.837Z,6.63
2022-09-04T03:48:15.566Z,3.77
2022-09-04T03:50:49.776Z,4.18
2022-09-04T03:53:23.882Z,2.92
2022-09-04T03:56:09.788Z,5.57
2022-09-04T03:58:43.592Z,6.22
2022-09-04T04:01:14.022Z,4.88
2022-09-04T04:04:02.731Z,3.38
2022-09-04T04:06:38.287Z,5.53
2022-09-04T04:09:21.572Z,4.90
2022-09-04T04:12:03.548Z,3.13
2022-09-04T04:14:46.255Z,4.27
2022-09-04T04:17:25.184Z,2.78
2022-09-04T04:20:05.966Z,6.28
2022-09-04T04:22:47.289Z,3.70
2022-09-04T04:25:25.239Z,3.72
2022-09-04T04:28:09.352Z,4.18
2022-09-04T04:30:45.856Z,4.95
2022-09-04T04:33:24.367Z,4.22
2022-09-04T04:36:01.467Z,5.45
2022-09-04T04:38:44.704Z,7.07
2022-09-04T04:41:24.994Z,5.00
2022-09-04T04:44:06.979Z,3.67
2022-09-04T04:46:46.319Z,3.83
2022-09-04T04:49:39.710Z,8.00
2022-09-04T04:52:22.276Z,4.15
2022-09-04T04:54:59.223Z,4.85
2022-09-04T04:57:32.855Z,2.83
2022-09-04T05:00:08.459Z,5.38
2022-09-04T05:02:39.182Z,3.47
2022-09-04T05:05:14.011Z,3.70
2022-09-04T05:07:50.977Z,3.42
2022-09-04T05:10:20.989Z,7.60
2022-09-04T05:12:59.834Z,3.38
2022-09-04T05:15:34.410Z,2.92
2022-09-04T05:18:09.276Z,3.95
2022-09-04T05:20:42.902Z,3.40
2022-09-04T05:23:18.967Z,5.25
2022-09-04T05:25:52.068Z,7.32
2022-09-04T05:28:29.485Z,2.87
2022-09-04T05:31:06.223Z,4.82
2022-09-04T05:33:39.949Z,4.30
2022-09-04T05:36:14.381Z,3.72
2022-09-04T05:38:51.640Z,6.78
2022-09-04T05:41:32.752Z,4.43
2022-09-04T05:44:08.803Z,3.47
2022-09-04T05:46:46.482Z,5.05
2022-09-04T05:49:28.462Z,3.90
2022-09-04T05:52:20.253Z,6.60
2022-09-04T05:55:02.302Z,3.03
2022-09-04T05:57:40.223Z,4.65
2022-09-04T06:00:10.418Z,3.85
2022-09-04T06:02:50.693Z,4.18
2022-09-04T06:05:28.786Z,3.13
2022-09-04T06:08:02.664Z,2.97
2022-09-04T06:10:45.694Z,4.03
2022-09-04T06:13:30.009Z,2.65
2022-09-04T06:16:11.157Z,2.78
2022-09-04T06:18:50.578Z,6.20
2022-09-04T06:21:50.410Z,4.72
2022-09-04T06:24:37.888Z,6.97
2022-09-04T06:27:35.362Z,7.88
2022-09-04T06:30:07.891Z,5.03
2022-09-04T06:33:08.141Z,7.03
2022-09-04T06:35:47.071Z,3.92
2022-09-04T06:38:34.545Z,2.30
2022-09-04T06:41:13.231Z,4.03
2022-09-04T06:43:48.594Z,3.83
2022-09-04T06:46:22.743Z,6.00
2022-09-04T06:49:00.752Z,3.40
2022-09-04T06:51:39.992Z,3.25
2022-09-04T06:54:17.271Z,3.13
2022-09-04T06:56:58.241Z,4.57
2022-09-04T06:59:36.469Z,7.55
2022-09-04T07:02:17.548Z,4.47
2022-09-04T07:04:52.767Z,2.97
2022-09-04T07:07:23.896Z,4.85
2022-09-04T07:10:01.227Z,3.45
2022-09-04T07:12:55.753Z,4.03
2022-09-04T07:15:47.539Z,3.33
2022-09-04T07:18:35.304Z,4.60
2022-09-04T07:21:07.994Z,3.63
2022-09-04T07:23:45.227Z,3.37
2022-09-04T07:26:20.879Z,4.22
2022-09-04T07:29:07.627Z,4.53
2022-09-04T07:31:40.876Z,4.68
2022-09-04T07:34:15.162Z,2.45
2022-09-04T07:36:49.700Z,5.03
2022-09-04T07:39:22.062Z,3.20
2022-09-04T07:41:54.492Z,4.78
2022-09-04T07:44:29.226Z,8.88
2022-09-04T07:47:13.618Z,3.50
2022-09-04T07:49:50.975Z,3.93
2022-09-04T07:52:28.511Z,5.47
2022-09-04T07:55:10.448Z,4.63
2022-09-04T07:57:56.126Z,7.20
2022-09-04T08:00:24.204Z,3.40
2022-09-04T08:03:20.955Z,3.65
2022-09-04T08:05:53.395Z,3.50
2022-09-04T08:08:39.307Z,4.88
2022-09-04T08:11:28.307Z,4.43
2022-09-04T08:14:35.100Z,2.20
2022-09-04T08:17:42.981Z,3.10
2022-09-04T08:20:21.788Z,4.23
2022-09-04T08:22:59.693Z,3.25
2022-09-04T08:25:30.688Z,3.93
2022-09-04T08:28:17.683Z,6.35
2022-09-04T08:30:54.165Z,2.53
2022-09-04T08:33:48.875Z,3.60
2022-09-04T08:36:25.436Z,2.92
2022-09-04T08:39:08.783Z,4.22
2022-09-04T08:42:13.419Z,2.42
2022-09-04T08:45:23.720Z,5.30
2022-09-04T08:48:38.433Z,5.78
2022-09-04T08:51:40.442Z,2.30
2022-09-04T08:54:36.050Z,2.90
2022-09-04T08:57:22.275Z,4.88
2022-09-04T09:00:06.294Z,3.22
2022-09-04T09:02:53.547Z,3.37
2022-09-04T09:05:38.947Z,2.83
2022-09-04T09:08:15.515Z,3.45
2022-09-04T09:11:02.238Z,3.25
2022-09-04T09:14:09.008Z,4.88
2022-09-04T09:16:45.252Z,2.97
2022-09-04T09:19:22.697Z,2.80
2022-09-04T09:22:11.314Z,3.40
2022-09-04T09:25:20.812Z,3.73
2022-09-04T09:28:18.627Z,3.05
2022-09-04T09:31:04.616Z,3.33
2022-09-04T09:34:15.333Z,3.00
2022-09-04T09:37:02.855Z,4.82
2022-09-04T09:39:54.793Z,1.90
2022-09-04T09:42:38.723Z,5.03
2022-09-04T09:45:28.524Z,2.92
2022-09-04T09:48:17.014Z,2.78
2022-09-04T09:51:18.573Z,2.42
2022-09-04T09:54:14.390Z,1.65
2022-09-04T09:57:02.817Z,3.97
2022-09-04T09:59:53.825Z,3.55
2022-09-04T10:03:04.706Z,2.90
2022-09-04T10:06:07.838Z,3.47
2022-09-04T10:09:09.396Z,3.43
2022-09-04T10:12:06.877Z,2.55
2022-09-04T10:14:50.642Z,3.73
2022-09-04T10:17:48.528Z,2.35
2022-09-04T10:20:46.381Z,2.42
2022-09-04T10:23:41.395Z,2.73
2022-09-04T10:26:50.139Z,3.13
2022-09-04T10:29:35.811Z,3.13
2022-09-04T10:32:27.507Z,3.43
2022-09-04T10:35:09.487Z,4.07
2022-09-04T10:37:54.167Z,3.22
2022-09-04T10:40:39.772Z,4.47
2022-09-04T10:43:26.487Z,2.20
2022-09-04T10:46:04.125Z,2.00
2022-09-04T10:48:57.211Z,1.58
2022-09-04T10:51:36.930Z,5.43
2022-09-04T10:54:44.977Z,2.17
2022-09-04T10:57:30.636Z,4.95
2022-09-04T11:00:08.599Z,2.05
2022-09-04T11:03:15.203Z,2.63
2022-09-04T11:06:15.756Z,1.92
2022-09-04T11:09:07.197Z,1.95
2022-09-04T11:11:50.467Z,2.13
2022-09-04T11:14:43.606Z,2.25
2022-09-04T11:17:38.877Z,1.25
2022-09-04T11:20:39.759Z,1.85
2022-09-04T11:23:49.701Z,1.58
2022-09-04T11:26:57.426Z,1.43
2022-09-04T11:29:50.080Z,2.67
2022-09-04T11:32:39.162Z,1.70
2022-09-04T11:35:36.389Z,1.85
2022-09-04T11:38:18.404Z,2.83
2022-09-04T11:41:22.327Z,4.25
2022-09-04T11:44:25.172Z,2.90
2022-09-04T11:47:17.845Z,2.55
2022-09-04T11:50:00.065Z,2.05
2022-09-04T11:52:40.458Z,2.20
2022-09-04T11:55:23.859Z,1.75
2022-09-04T11:58:08.835Z,1.43
2022-09-04T12:00:44.115Z,3.05
2022-09-04T12:03:36.285Z,1.70
2022-09-04T12:06:22.311Z,2.03
2022-09-04T12:09:18.441Z,1.65
2022-09-04T12:12:26.274Z,3.30
2022-09-04T12:15:22.207Z,3.88
2022-09-04T12:18:26.292Z,2.10
2022-09-04T12:21:34.839Z,1.38
2022-09-04T12:24:20.165Z,2.67
2022-09-04T12:27:15.507Z,2.50
2022-09-04T12:30:05.415Z,2.58
2022-09-04T12:32:55.148Z,1.15
2022-09-04T12:35:44.614Z,1.48
2022-09-04T12:38:25.787Z,1.83
2022-09-04T12:41:00.072Z,2.57
2022-09-04T12:43:41.842Z,1.17
2022-09-04T12:46:25.430Z,1.67
2022-09-04T12:49:10.311Z,2.77
2022-09-04T12:51:44.605Z,1.25
2022-09-04T12:54:25.017Z,1.90
2022-09-04T12:57:09.011Z,6.20
2022-09-04T12:59:52.489Z,1.75
2022-09-04T13:02:32.555Z,2.30
2022-09-04T13:05:12.613Z,2.45
2022-09-04T13:07:48.024Z,2.20
2022-09-04T13:10:25.121Z,2.90
2022-09-04T13:13:05.882Z,1.98
2022-09-04T13:15:43.746Z,1.20
2022-09-04T13:18:34.721Z,3.58
2022-09-04T13:21:09.907Z,1.57
2022-09-04T13:24:06.595Z,1.00
2022-09-04T13:26:46.105Z,3.05
2022-09-04T13:29:22.679Z,1.02
2022-09-04T13:32:00.275Z,2.60
2022-09-04T13:34:37.371Z,1.20
2022-09-04T13:37:10.008Z,1.70
2022-09-04T13:39:57.604Z,1.17
2022-09-04T13:43:19.342Z,2.88
2022-09-04T13:45:51.103Z,1.30
2022-09-04T13:48:32.668Z,1.75
2022-09-04T13:51:13.280Z,0.70
2022-09-04T13:53:55.193Z,1.53
2022-09-04T13:56:29.512Z,1.02
2022-09-04T13:59:00.229Z,1.37
2022-09-04T14:01:30.025Z,1.20
2022-09-04T14:04:00.692Z,1.13
2022-09-04T14:06:32.271Z,3.03
2022-09-04T14:09:05.604Z,2.78
2022-09-04T14:11:56.725Z,1.40
2022-09-04T14:14:41.332Z,2.35
2022-09-04T14:17:12.690Z,1.10
2022-09-04T14:19:48.315Z,1.90
2022-09-04T14:22:25.032Z,1.95
2022-09-04T14:25:06.443Z,1.08
2022-09-04T14:27:39.426Z,1.23
2022-09-04T14:30:09.355Z,5.38
2022-09-04T14:32:49.356Z,1.90
2022-09-04T14:35:23.140Z,3.50
2022-09-04T14:38:36.494Z,1.40
2022-09-04T14:41:13.401Z,4.25
2022-09-04T14:43:46.330Z,1.00
2022-09-04T14:46:21.899Z,1.20
2022-09-04T14:49:00.988Z,0.75
2022-09-04T14:51:35.152Z,3.50
2022-09-04T14:54:04.600Z,1.30
2022-09-04T14:56:36.646Z,1.00
2022-09-04T14:59:12.549Z,1.40
2022-09-04T15:01:58.024Z,2.78
2022-09-04T15:04:33.694Z,1.50
2022-09-04T15:07:11.684Z,3.38
2022-09-04T15:09:42.188Z,2.30
2022-09-04T15:12:27.106Z,1.00
2022-09-04T15:14:58.966Z,1.08
2022-09-04T15:17:29.393Z,1.60
2022-09-04T15:20:01.456Z,0.82
2022-09-04T15:22:34.704Z,1.88
2022-09-04T15:25:06.579Z,1.38
2022-09-04T15:27:44.345Z,1.13
2022-09-04T15:30:19.871Z,1.30
2022-09-04T15:32:48.840Z,1.38
2022-09-04T15:35:23.153Z,2.67
2022-09-04T15:37:53.254Z,1.38
2022-09-04T15:40:28.963Z,2.95
2022-09-04T15:43:07.986Z,2.28
2022-09-04T15:45:43.406Z,1.70
2022-09-04T15:48:21.142Z,0.80
2022-09-04T15:50:59.583Z,2.65
2022-09-04T15:53:29.892Z,1.45
2022-09-04T15:56:27.738Z,1.60
2022-09-04T15:59:01.512Z,1.75
2022-09-04T16:01:31.925Z,1.40
2022-09-04T16:04:07.110Z,1.95
2022-09-04T16:06:44.510Z,3.00
2022-09-04T16:09:20.793Z,2.40
2022-09-04T16:11:55.914Z,1.80
2022-09-04T16:14:26.207Z,3.20
2022-09-04T16:16:56.827Z,2.13
2022-09-04T16:19:28.455Z,1.35
2022-09-04T16:22:07.661Z,1.58
2022-09-04T16:25:36.858Z,2.00
2022-09-04T16:28:08.059Z,3.08
2022-09-04T16:30:41.852Z,1.90
2022-09-04T16:33:28.194Z,3.57
2022-09-04T16:36:00.412Z,2.17
2022-09-04T16:38:33.242Z,1.77
2022-09-04T16:41:06.189Z,3.53
2022-09-04T16:43:35.404Z,1.30
2022-09-04T16:46:10.664Z,2.85
2022-09-04T16:48:46.685Z,2.75
2022-09-04T16:51:39.138Z,5.50
2022-09-04T16:54:12.525Z,3.77
2022-09-04T16:56:42.970Z,5.50
2022-09-04T16:59:21.939Z,2.55
2022-09-04T17:01:53.583Z,2.10
2022-09-04T17:04:41.947Z,1.90
2022-09-04T17:07:15.946Z,1.98
2022-09-04T17:09:56.227Z,2.17
2022-09-04T17:12:32.937Z,1.98
2022-09-04T17:15:12.413Z,2.00
2022-09-04T17:17:42.580Z,3.13
2022-09-04T17:20:12.834Z,2.95
2022-09-04T17:28:55.574Z,2.30
2022-09-04T17:29:12.476Z,2.83
2022-09-04T17:29:37.213Z,2.80
2022-09-04T17:32:58.365Z,1.73
2022-09-04T17:40:48.032Z,7.07
2022-09-04T17:40:56.579Z,3.78
2022-09-04T17:41:38.081Z,12.10
2022-09-04T17:44:05.377Z,6.18
2022-09-04T17:46:37.024Z,13.38
2022-09-04T17:49:14.298Z,17.38
2022-09-04T17:51:48.696Z,31.80
2022-09-04T17:54:17.959Z,27.33
2022-09-04T17:56:49.775Z,9.93
2022-09-04T17:59:23.837Z,16.42
2022-09-04T18:02:01.468Z,12.15
2022-09-04T18:04:37.619Z,4.47
2022-09-04T18:07:28.691Z,8.18
2022-09-04T18:10:09.746Z,5.63
2022-09-04T18:12:40.678Z,5.30
2022-09-04T18:15:33.480Z,5.73
2022-09-04T18:18:08.942Z,11.80
2022-09-04T18:20:40.780Z,7.40
2022-09-04T18:23:50.956Z,8.05
2022-09-04T18:26:24.625Z,13.70
2022-09-04T18:29:00.710Z,10.13
2022-09-04T18:37:16.159Z,13.77
2022-09-04T18:37:21.673Z,17.47
2022-09-04T18:37:44.626Z,12.20
2022-09-04T18:40:12.843Z,10.50
2022-09-04T18:50:20.356Z,4.45
2022-09-04T18:50:30.119Z,4.95
2022-09-04T18:50:50.300Z,10.15
2022-09-04T18:51:25.434Z,12.45
2022-09-04T18:53:57.293Z,5.07
2022-09-04T18:56:27.977Z,3.93
2022-09-04T18:59:00.562Z,5.85
2022-09-04T19:01:34.678Z,4.97
2022-09-04T19:04:21.536Z,6.28
2022-09-04T19:06:55.770Z,7.10
2022-09-04T19:09:51.209Z,3.38
2022-09-04T19:12:35.818Z,5.13
2022-09-04T19:15:36.258Z,3.40
2022-09-04T19:18:08.657Z,3.30
2022-09-04T19:20:47.471Z,4.60
2022-09-04T19:23:21.712Z,4.43
2022-09-04T19:25:54.843Z,4.13
2022-09-04T19:28:26.839Z,3.08
2022-09-04T19:30:56.826Z,4.75
2022-09-04T19:33:32.028Z,5.20
2022-09-04T19:36:05.889Z,2.83
2022-09-04T19:45:56.466Z,5.18
2022-09-04T19:46:07.453Z,5.97
2022-09-04T19:46:19.139Z,1.65
2022-09-04T19:47:29.375Z,3.85
2022-09-04T19:53:20.263Z,10.80
2022-09-04T19:53:24.321Z,4.72
2022-09-04T19:55:47.029Z,5.22
2022-09-04T19:58:16.984Z,2.53
2022-09-04T20:00:48.865Z,2.50
2022-09-04T20:03:30.070Z,3.03
2022-09-04T20:06:19.859Z,4.72
2022-09-04T20:08:53.595Z,2.40
2022-09-04T20:11:30.614Z,4.25
2022-09-04T20:14:14.459Z,2.47
2022-09-04T20:16:52.042Z,3.40
2022-09-04T20:19:28.063Z,2.05
2022-09-04T20:22:00.899Z,3.95
2022-09-04T20:24:36.743Z,3.30
2022-09-04T20:27:10.223Z,2.85
2022-09-04T20:29:42.734Z,2.97
2022-09-04T20:32:16.498Z,4.68
2022-09-04T20:35:45.819Z,2.25
2022-09-04T20:38:23.158Z,3.65
2022-09-04T20:40:59.371Z,4.03
2022-09-04T20:43:32.517Z,2.80
2022-09-04T20:51:09.086Z,5.07
2022-09-04T20:52:51.290Z,3.45
2022-09-04T20:52:55.272Z,2.70
2022-09-04T20:54:55.571Z,3.25
2022-09-04T21:00:53.383Z,3.03
2022-09-04T21:03:22.401Z,1.88
2022-09-04T21:03:27.953Z,3.70
2022-09-04T21:06:12.216Z,7.63
2022-09-04T21:08:47.661Z,3.10
2022-09-04T21:11:41.457Z,3.38
2022-09-04T21:14:10.796Z,2.80
2022-09-04T21:16:54.136Z,3.40
2022-09-04T21:19:36.172Z,2.53
2022-09-04T21:22:32.582Z,3.03
2022-09-04T21:25:12.441Z,4.20
2022-09-04T21:28:23.172Z,3.60
2022-09-04T21:31:00.454Z,2.05
2022-09-04T21:33:36.383Z,4.17
2022-09-04T21:36:26.821Z,3.47
2022-09-04T21:39:28.956Z,4.40
2022-09-04T21:42:17.639Z,4.13
2022-09-04T21:45:24.609Z,1.98
2022-09-04T21:48:18.390Z,3.38
2022-09-04T21:50:58.830Z,3.83
2022-09-04T21:53:54.585Z,3.30
2022-09-04T22:00:16.121Z,3.95
2022-09-04T22:02:36.660Z,3.17
2022-09-04T22:03:21.988Z,6.40
2022-09-04T22:05:58.167Z,2.72
2022-09-04T22:13:30.304Z,7.65
2022-09-04T22:13:41.039Z,6.80
2022-09-04T22:14:43.085Z,3.35
2022-09-04T22:17:36.601Z,4.83
2022-09-04T22:20:21.403Z,5.90
2022-09-04T22:23:34.871Z,5.18
2022-09-04T22:26:24.158Z,3.60
2022-09-04T22:29:00.401Z,3.83
2022-09-04T22:32:00.826Z,5.38
2022-09-04T22:34:45.010Z,4.70
2022-09-04T22:37:52.554Z,8.15
2022-09-04T22:40:29.501Z,4.53
2022-09-04T22:43:08.828Z,4.80
2022-09-04T22:45:59.572Z,4.13
2022-09-04T22:49:13.111Z,5.15
2022-09-04T22:52:17.229Z,4.65
2022-09-04T22:54:57.503Z,6.47
2022-09-04T22:57:32.460Z,4.50
2022-09-04T23:00:09.661Z,3.90
2022-09-04T23:03:23.148Z,3.50
2022-09-04T23:07:38.828Z,5.18
2022-09-04T23:13:48.889Z,5.43
2022-09-04T23:13:50.522Z,5.05
2022-09-04T23:15:27.467Z,3.10
2022-09-04T23:20:42.449Z,4.68
2022-09-04T23:26:31.721Z,4.55
2022-09-04T23:26:48.653Z,4.90
2022-09-04T23:27:33.662Z,3.97
2022-09-04T23:30:25.746Z,4.80
2022-09-04T23:33:27.925Z,3.42
2022-09-04T23:36:05.235Z,8.27
2022-09-04T23:39:01.079Z,4.20
2022-09-04T23:41:44.666Z,3.80
2022-09-04T23:44:44.998Z,3.33
2022-09-04T23:47:48.371Z,4.50
2022-09-04T23:50:27.427Z,3.92
2022-09-04T23:53:04.504Z,4.88
2022-09-04T23:55:49.071Z,4.97
2022-09-04T23:58:51.999Z,2.70
